createdAt,value
2018-09-10T00:01:39.751Z,6.72
2018-09-10T00:04:08.975Z,6.92
2018-09-10T00:06:38.230Z,6.78
2018-09-10T00:09:09.055Z,7.12
2018-09-10T00:11:39.041Z,7.53
2018-09-10T00:14:08.139Z,7.20
2018-09-10T00:16:37.338Z,7.05
2018-09-10T00:19:06.274Z,7.53
2018-09-10T00:21:35.329Z,7.40
2018-09-10T00:24:04.396Z,7.03
2018-09-10T00:26:33.430Z,6.97
2018-09-10T00:29:02.483Z,7.20
2018-09-10T00:31:31.691Z,7.03
2018-09-10T00:34:00.967Z,7.67
2018-09-10T00:36:30.174Z,7.58
2018-09-10T00:38:59.312Z,6.95
2018-09-10T00:41:28.327Z,7.33
2018-09-10T00:43:57.371Z,7.70
2018-09-10T00:46:26.390Z,7.65
2018-09-10T00:48:55.418Z,7.95
2018-09-10T00:51:24.254Z,7.58
2018-09-10T00:53:53.163Z,8.35
2018-09-10T00:56:22.406Z,8.10
2018-09-10T00:58:51.559Z,8.23
2018-09-10T01:01:20.868Z,8.33
2018-09-10T01:03:50.690Z,7.53
2018-09-10T01:06:19.581Z,8.30
2018-09-10T01:08:48.372Z,7.97
2018-09-10T01:11:17.722Z,8.88
2018-09-10T01:13:46.767Z,7.80
2018-09-10T01:16:15.759Z,8.60
2018-09-10T01:18:45.231Z,8.15
2018-09-10T01:21:14.142Z,8.40
2018-09-10T01:23:43.022Z,8.50
2018-09-10T01:26:12.382Z,8.88
2018-09-10T01:28:41.343Z,9.33
2018-09-10T01:31:10.315Z,9.60
2018-09-10T01:33:44.613Z,9.85
2018-09-10T01:36:13.734Z,9.58
2018-09-10T01:38:42.628Z,9.98
2018-09-10T01:41:12.076Z,10.40
2018-09-10T01:43:41.333Z,9.88
2018-09-10T01:46:10.324Z,9.40
2018-09-10T01:48:40.110Z,9.73
2018-09-10T01:51:09.175Z,9.95
2018-09-10T01:53:38.150Z,9.75
2018-09-10T01:56:07.253Z,10.00
2018-09-10T01:58:36.134Z,11.00
2018-09-10T02:01:05.220Z,10.43
2018-09-10T02:03:34.447Z,11.05
2018-09-10T02:06:03.458Z,10.35
2018-09-10T02:08:32.422Z,10.53
2018-09-10T02:11:01.832Z,10.53
2018-09-10T02:13:31.023Z,11.20
2018-09-10T02:16:00.027Z,10.78
2018-09-10T02:18:28.954Z,11.03
2018-09-10T02:20:58.006Z,11.88
2018-09-10T02:23:28.185Z,10.88
2018-09-10T02:25:57.765Z,11.00
2018-09-10T02:28:26.736Z,10.68
2018-09-10T02:30:55.718Z,12.05
2018-09-10T02:33:24.938Z,11.90
2018-09-10T02:35:53.934Z,11.22
2018-09-10T02:38:23.151Z,11.83
2018-09-10T02:40:52.062Z,11.05
2018-09-10T02:43:21.113Z,11.65
2018-09-10T02:45:50.113Z,12.03
2018-09-10T02:48:19.538Z,11.10
2018-09-10T02:50:48.524Z,12.78
2018-09-10T02:53:17.607Z,12.63
2018-09-10T02:55:47.026Z,12.85
2018-09-10T02:58:16.120Z,12.23
2018-09-10T03:00:44.990Z,11.73
2018-09-10T03:03:14.027Z,11.30
2018-09-10T03:05:42.802Z,12.47
2018-09-10T03:08:11.990Z,11.75
2018-09-10T03:10:41.354Z,12.07
2018-09-10T03:13:10.383Z,13.10
2018-09-10T03:15:39.387Z,11.97
2018-09-10T03:18:08.940Z,13.22
2018-09-10T03:20:37.866Z,13.22
2018-09-10T03:23:07.078Z,12.33
2018-09-10T03:25:36.585Z,13.45
2018-09-10T03:28:05.506Z,13.70
2018-09-10T03:30:34.372Z,13.72
2018-09-10T03:33:03.540Z,13.50
2018-09-10T03:35:32.351Z,13.78
2018-09-10T03:38:01.655Z,14.23
2018-09-10T03:40:30.678Z,13.45
2018-09-10T03:42:59.760Z,14.13
2018-09-10T03:45:28.735Z,13.00
2018-09-10T03:47:58.063Z,14.18
2018-09-10T03:50:27.340Z,14.35
2018-09-10T03:52:56.222Z,14.35
2018-09-10T03:55:25.368Z,14.20
2018-09-10T03:57:54.336Z,13.58
2018-09-10T04:00:23.755Z,15.10
2018-09-10T04:02:53.166Z,15.70
2018-09-10T04:05:22.240Z,15.50
2018-09-10T04:07:51.349Z,14.80
2018-09-10T04:10:20.675Z,15.63
2018-09-10T04:12:49.752Z,15.80
2018-09-10T04:15:18.915Z,16.70
2018-09-10T04:17:48.062Z,16.67
2018-09-10T04:20:16.922Z,14.85
2018-09-10T04:22:46.223Z,13.45
2018-09-10T04:25:15.847Z,14.07
2018-09-10T04:27:44.933Z,14.40
2018-09-10T04:30:15.455Z,14.10
2018-09-10T04:32:44.852Z,13.90
2018-09-10T04:35:13.915Z,15.68
2018-09-10T04:37:42.965Z,12.98
2018-09-10T04:40:12.323Z,13.32
2018-09-10T04:42:41.552Z,14.03
2018-09-10T04:45:11.037Z,12.93
2018-09-10T04:47:40.399Z,12.50
2018-09-10T04:50:09.558Z,12.23
2018-09-10T04:52:38.558Z,14.68
2018-09-10T04:55:07.934Z,13.10
2018-09-10T04:57:36.936Z,12.58
2018-09-10T05:00:06.573Z,14.45
2018-09-10T05:02:36.136Z,13.32
2018-09-10T05:05:05.174Z,14.75
2018-09-10T05:07:34.275Z,13.53
2018-09-10T05:10:03.927Z,13.72
2018-09-10T05:12:32.981Z,12.88
2018-09-10T05:15:01.880Z,14.00
2018-09-10T05:17:31.291Z,12.37
2018-09-10T05:20:00.449Z,13.20
2018-09-10T05:22:29.471Z,12.15
2018-09-10T05:24:59.016Z,11.55
2018-09-10T05:27:27.858Z,10.58
2018-09-10T05:29:56.921Z,12.13
2018-09-10T05:32:26.380Z,11.63
2018-09-10T05:34:55.466Z,11.65
2018-09-10T05:37:24.458Z,12.35
2018-09-10T05:39:53.591Z,10.08
2018-09-10T05:42:22.657Z,11.95
2018-09-10T05:44:51.949Z,12.28
2018-09-10T05:47:21.258Z,10.70
2018-09-10T05:49:50.147Z,12.10
2018-09-10T05:52:19.126Z,10.72
2018-09-10T05:54:48.151Z,10.53
2018-09-10T05:57:17.216Z,8.40
2018-09-10T05:59:46.362Z,9.53
2018-09-10T06:02:15.767Z,9.85
2018-09-10T06:04:45.019Z,7.12
2018-09-10T06:07:14.025Z,7.05
2018-09-10T06:09:43.386Z,6.78
2018-09-10T06:12:12.595Z,6.97
2018-09-10T06:14:41.431Z,7.00
2018-09-10T06:17:10.339Z,6.85
2018-09-10T06:19:39.603Z,6.42
2018-09-10T06:22:08.611Z,6.40
2018-09-10T06:24:38.158Z,7.87
2018-09-10T06:27:07.232Z,7.22
2018-09-10T06:29:36.407Z,7.20
2018-09-10T06:32:05.963Z,6.50
2018-09-10T06:34:35.007Z,6.65
2018-09-10T06:37:03.944Z,6.05
2018-09-10T06:39:32.790Z,6.53
2018-09-10T06:42:02.077Z,6.10
2018-09-10T06:44:30.961Z,7.60
2018-09-10T06:47:00.544Z,5.95
2018-09-10T06:49:29.591Z,6.85
2018-09-10T06:51:58.665Z,7.80
2018-09-10T06:54:27.807Z,7.60
2018-09-10T06:56:56.767Z,6.17
2018-09-10T06:59:25.758Z,8.03
2018-09-10T07:01:55.179Z,6.37
2018-09-10T07:04:24.584Z,5.83
2018-09-10T07:06:53.687Z,6.33
2018-09-10T07:09:22.959Z,8.85
2018-09-10T07:11:51.979Z,6.15
2018-09-10T07:14:20.977Z,6.20
2018-09-10T07:16:50.163Z,6.90
2018-09-10T07:19:19.244Z,6.55
2018-09-10T07:21:48.475Z,6.65
2018-09-10T07:24:17.841Z,6.85
2018-09-10T07:26:46.869Z,7.15
2018-09-10T07:29:15.864Z,7.10
2018-09-10T07:31:45.691Z,6.53
2018-09-10T07:34:14.689Z,6.22
2018-09-10T07:36:43.867Z,6.65
2018-09-10T07:39:13.699Z,6.42
2018-09-10T07:41:42.800Z,6.33
2018-09-10T07:44:11.563Z,6.37
2018-09-10T07:46:41.412Z,6.03
2018-09-10T07:49:10.472Z,5.92
2018-09-10T07:51:39.375Z,6.33
2018-09-10T07:54:08.767Z,5.95
2018-09-10T07:56:37.884Z,6.35
2018-09-10T07:59:07.027Z,6.28
2018-09-10T08:01:36.151Z,6.30
2018-09-10T08:04:05.549Z,6.42
2018-09-10T08:06:34.693Z,5.60
2018-09-10T08:09:04.181Z,5.75
2018-09-10T08:11:33.170Z,5.72
2018-09-10T08:14:02.147Z,6.08
2018-09-10T08:16:31.614Z,7.08
2018-09-10T08:19:00.551Z,7.00
2018-09-10T08:21:29.545Z,6.08
2018-09-10T08:23:59.007Z,4.62
2018-09-10T08:26:28.315Z,5.03
2018-09-10T08:28:57.544Z,5.50
2018-09-10T08:31:26.701Z,4.85
2018-09-10T08:33:55.969Z,5.45
2018-09-10T08:36:25.115Z,4.87
2018-09-10T08:38:54.374Z,5.67
2018-09-10T08:41:23.535Z,5.80
2018-09-10T08:43:52.626Z,6.05
2018-09-10T08:46:22.175Z,4.92
2018-09-10T08:48:51.435Z,5.75
2018-09-10T08:51:20.424Z,5.67
2018-09-10T08:53:49.383Z,4.40
2018-09-10T08:56:18.699Z,4.35
2018-09-10T08:58:47.632Z,4.67
2018-09-10T09:01:16.959Z,5.42
2018-09-10T09:03:45.830Z,4.97
2018-09-10T09:06:14.961Z,4.78
2018-09-10T09:08:44.255Z,5.95
2018-09-10T09:11:13.542Z,6.08
2018-09-10T09:13:42.423Z,4.33
2018-09-10T09:16:11.429Z,4.28
2018-09-10T09:18:40.437Z,4.30
2018-09-10T09:21:09.923Z,5.85
2018-09-10T09:23:38.976Z,4.85
2018-09-10T09:26:08.053Z,6.53
2018-09-10T09:28:37.007Z,5.10
2018-09-10T09:31:06.526Z,5.62
2018-09-10T09:33:35.515Z,5.20
2018-09-10T09:36:10.125Z,5.85
2018-09-10T09:38:44.383Z,4.40
2018-09-10T09:41:18.628Z,5.30
2018-09-10T09:43:52.811Z,4.30
2018-09-10T09:46:21.922Z,4.70
2018-09-10T09:48:50.917Z,4.22
2018-09-10T09:51:19.873Z,4.53
2018-09-10T09:53:49.296Z,4.42
2018-09-10T09:56:18.559Z,4.58
2018-09-10T09:58:47.543Z,4.45
2018-09-10T10:01:24.141Z,4.50
2018-09-10T10:03:53.411Z,4.37
2018-09-10T10:06:23.162Z,4.53
2018-09-10T10:08:52.582Z,3.92
2018-09-10T10:11:21.845Z,4.80
2018-09-10T10:13:51.513Z,4.30
2018-09-10T10:16:20.920Z,4.10
2018-09-10T10:18:49.770Z,4.37
2018-09-10T10:21:18.971Z,4.78
2018-09-10T10:23:48.206Z,4.28
2018-09-10T10:26:17.339Z,4.58
2018-09-10T10:28:46.355Z,3.52
2018-09-10T10:31:15.085Z,4.22
2018-09-10T10:33:44.443Z,4.28
2018-09-10T10:36:13.655Z,4.87
2018-09-10T10:38:43.491Z,3.72
2018-09-10T10:41:12.582Z,4.83
2018-09-10T10:43:41.771Z,4.50
2018-09-10T10:46:11.383Z,4.78
2018-09-10T10:48:40.380Z,3.92
2018-09-10T10:51:09.447Z,4.37
2018-09-10T10:53:38.784Z,4.08
2018-09-10T10:56:07.868Z,4.42
2018-09-10T10:58:36.853Z,4.17
2018-09-10T11:01:06.170Z,4.47
2018-09-10T11:03:35.252Z,4.40
2018-09-10T11:06:04.352Z,4.10
2018-09-10T11:08:33.666Z,5.05
2018-09-10T11:11:02.725Z,4.75
2018-09-10T11:13:31.584Z,4.62
2018-09-10T11:16:00.799Z,4.47
2018-09-10T11:18:29.739Z,4.05
2018-09-10T11:20:58.712Z,3.72
2018-09-10T11:23:28.147Z,4.15
2018-09-10T11:25:57.440Z,3.52
2018-09-10T11:28:26.540Z,4.42
2018-09-10T11:30:55.863Z,4.37
2018-09-10T11:33:24.835Z,3.92
2018-09-10T11:35:53.929Z,3.75
2018-09-10T11:38:23.278Z,4.60
2018-09-10T11:40:52.499Z,3.83
2018-09-10T11:43:21.779Z,3.85
2018-09-10T11:45:51.286Z,3.55
2018-09-10T11:48:20.406Z,3.87
2018-09-10T11:50:49.399Z,3.62
2018-09-10T11:53:18.838Z,3.98
2018-09-10T11:55:48.003Z,3.83
2018-09-10T11:58:17.114Z,4.20
2018-09-10T12:00:46.454Z,3.98
2018-09-10T12:03:15.619Z,3.47
2018-09-10T12:05:44.629Z,4.12
2018-09-10T12:08:14.161Z,4.30
2018-09-10T12:10:43.358Z,3.60
2018-09-10T12:13:12.843Z,3.55
2018-09-10T12:15:42.219Z,3.50
2018-09-10T12:18:11.150Z,3.72
2018-09-10T12:20:40.110Z,4.33
2018-09-10T12:23:09.491Z,4.22
2018-09-10T12:25:38.530Z,4.30
2018-09-10T12:28:07.422Z,3.70
2018-09-10T12:30:36.375Z,4.33
2018-09-10T12:33:05.478Z,4.08
2018-09-10T12:35:34.579Z,3.72
2018-09-10T12:38:04.007Z,3.12
2018-09-10T12:40:32.899Z,3.02
2018-09-10T12:43:02.005Z,3.92
2018-09-10T12:45:31.223Z,3.30
2018-09-10T12:48:00.408Z,3.90
2018-09-10T12:50:29.367Z,3.37
2018-09-10T12:52:58.387Z,3.62
2018-09-10T12:55:27.461Z,3.42
2018-09-10T12:57:56.625Z,2.90
2018-09-10T13:00:26.066Z,3.22
2018-09-10T13:02:54.927Z,2.77
2018-09-10T13:05:24.043Z,2.75
2018-09-10T13:07:53.089Z,3.27
2018-09-10T13:10:22.047Z,2.90
2018-09-10T13:12:51.047Z,3.35
2018-09-10T13:15:20.375Z,3.50
2018-09-10T13:17:49.348Z,4.10
2018-09-10T13:20:18.255Z,3.58
2018-09-10T13:22:47.347Z,2.95
2018-09-10T13:25:16.615Z,4.08
2018-09-10T13:27:45.751Z,3.00
2018-09-10T13:30:14.963Z,4.12
2018-09-10T13:32:43.828Z,3.27
2018-09-10T13:35:13.031Z,3.80
2018-09-10T13:37:43.482Z,3.47
2018-09-10T13:40:12.527Z,3.50
2018-09-10T13:42:41.546Z,2.80
2018-09-10T13:45:10.871Z,3.92
2018-09-10T13:47:39.950Z,3.27
2018-09-10T13:50:09.142Z,3.27
2018-09-10T13:52:38.674Z,3.17
2018-09-10T13:55:07.902Z,2.92
2018-09-10T13:57:36.943Z,3.02
2018-09-10T14:00:06.303Z,2.95
2018-09-10T14:02:36.190Z,2.90
2018-09-10T14:05:05.265Z,3.05
2018-09-10T14:07:34.274Z,3.00
2018-09-10T14:10:03.448Z,3.00
2018-09-10T14:12:32.339Z,2.92
2018-09-10T14:15:02.029Z,2.55
2018-09-10T14:17:31.066Z,3.27
2018-09-10T14:20:00.047Z,3.02
2018-09-10T14:22:29.679Z,2.87
2018-09-10T14:24:58.763Z,2.58
2018-09-10T14:27:27.993Z,2.95
2018-09-10T14:29:57.070Z,2.62
2018-09-10T14:32:26.034Z,2.80
2018-09-10T14:34:54.939Z,2.92
2018-09-10T14:37:24.368Z,3.20
2018-09-10T14:39:53.547Z,3.10
2018-09-10T14:42:22.664Z,2.47
2018-09-10T14:44:52.194Z,3.47
2018-09-10T14:47:21.326Z,3.05
2018-09-10T14:49:50.551Z,2.77
2018-09-10T14:52:19.568Z,2.92
2018-09-10T14:54:48.644Z,3.52
2018-09-10T14:57:17.720Z,3.15
2018-09-10T14:59:47.380Z,3.25
2018-09-10T15:02:16.560Z,3.47
2018-09-10T15:04:45.539Z,2.95
2018-09-10T15:07:15.158Z,2.90
2018-09-10T15:09:44.254Z,3.20
2018-09-10T15:12:13.283Z,2.45
2018-09-10T15:14:42.446Z,3.33
2018-09-10T15:17:11.527Z,2.60
2018-09-10T15:19:40.639Z,3.30
2018-09-10T15:22:09.933Z,2.90
2018-09-10T15:24:38.889Z,2.92
2018-09-10T15:27:07.810Z,2.62
2018-09-10T15:29:37.258Z,6.30
2018-09-10T15:32:06.508Z,2.83
2018-09-10T15:34:35.679Z,2.83
2018-09-10T15:37:05.115Z,2.85
2018-09-10T15:39:33.898Z,2.62
2018-09-10T15:42:02.771Z,3.12
2018-09-10T15:44:32.252Z,2.80
2018-09-10T15:47:01.204Z,2.50
2018-09-10T15:49:30.910Z,2.67
2018-09-10T15:52:00.248Z,3.87
2018-09-10T15:54:29.476Z,3.02
2018-09-10T15:56:58.600Z,2.70
2018-09-10T15:59:28.279Z,2.72
2018-09-10T16:01:57.338Z,3.80
2018-09-10T16:04:26.194Z,2.90
2018-09-10T16:06:55.034Z,2.83
2018-09-10T16:09:24.105Z,2.83
2018-09-10T16:11:53.167Z,2.92
2018-09-10T16:14:22.571Z,3.62
2018-09-10T16:16:51.573Z,4.25
2018-09-10T16:19:20.496Z,4.05
2018-09-10T16:21:49.494Z,3.62
2018-09-10T16:24:18.563Z,3.70
2018-09-10T16:26:47.811Z,4.95
2018-09-10T16:29:17.083Z,3.60
2018-09-10T16:31:45.899Z,3.75
2018-09-10T16:34:14.979Z,4.50
2018-09-10T16:36:43.891Z,4.10
2018-09-10T16:39:13.294Z,3.75
2018-09-10T16:41:42.350Z,4.15
2018-09-10T16:44:11.702Z,4.60
2018-09-10T16:46:40.735Z,4.22
2018-09-10T16:49:09.939Z,4.37
2018-09-10T16:51:39.284Z,3.55
2018-09-10T16:54:08.473Z,4.25
2018-09-10T16:56:37.450Z,4.28
2018-09-10T16:59:06.881Z,4.53
2018-09-10T17:01:35.761Z,4.75
2018-09-10T17:04:04.756Z,5.70
2018-09-10T17:06:34.171Z,5.62
2018-09-10T17:09:03.207Z,5.20
2018-09-10T17:11:32.335Z,5.10
2018-09-10T17:14:01.479Z,4.58
2018-09-10T17:16:30.610Z,4.58
2018-09-10T17:18:59.507Z,3.80
2018-09-10T17:21:28.948Z,4.00
2018-09-10T17:23:57.984Z,5.10
2018-09-10T17:26:26.919Z,3.98
2018-09-10T17:28:56.251Z,5.28
2018-09-10T17:31:25.427Z,4.17
2018-09-10T17:33:54.728Z,3.90
2018-09-10T17:36:24.194Z,4.60
2018-09-10T17:38:53.111Z,4.65
2018-09-10T17:41:22.214Z,4.28
2018-09-10T17:43:51.114Z,3.90
2018-09-10T17:46:20.036Z,4.17
2018-09-10T17:48:49.079Z,4.53
2018-09-10T17:51:18.618Z,3.92
2018-09-10T17:53:47.575Z,5.05
2018-09-10T17:56:16.600Z,4.12
2018-09-10T17:58:46.208Z,3.87
2018-09-10T18:01:15.324Z,4.83
2018-09-10T18:03:44.307Z,4.95
2018-09-10T18:06:13.511Z,4.92
2018-09-10T18:08:42.236Z,4.83
2018-09-10T18:11:11.462Z,4.60
2018-09-10T18:13:41.509Z,4.95
2018-09-10T18:16:10.495Z,4.97
2018-09-10T18:18:39.507Z,5.10
2018-09-10T18:21:08.885Z,5.15
2018-09-10T18:23:37.911Z,4.95
2018-09-10T18:26:06.999Z,5.05
2018-09-10T18:28:36.286Z,5.20
2018-09-10T18:31:05.287Z,4.55
2018-09-10T18:33:34.421Z,4.22
2018-09-10T18:36:03.562Z,4.60
2018-09-10T18:38:32.455Z,5.45
2018-09-10T18:41:01.429Z,5.08
2018-09-10T18:43:31.003Z,5.92
2018-09-10T18:46:00.037Z,5.45
2018-09-10T18:48:29.037Z,4.80
2018-09-10T18:50:58.194Z,5.37
2018-09-10T18:53:27.239Z,6.58
2018-09-10T18:55:56.379Z,5.83
2018-09-10T18:58:25.582Z,5.85
2018-09-10T19:00:54.668Z,5.90
2018-09-10T19:03:23.659Z,6.40
2018-09-10T19:05:52.907Z,5.97
2018-09-10T19:08:21.999Z,6.00
2018-09-10T19:10:51.255Z,5.90
2018-09-10T19:13:20.667Z,6.28
2018-09-10T19:15:50.016Z,5.92
2018-09-10T19:18:19.508Z,6.97
2018-09-10T19:20:48.877Z,6.50
2018-09-10T19:23:17.951Z,6.60
2018-09-10T19:25:47.062Z,6.97
2018-09-10T19:28:16.678Z,7.28
2018-09-10T19:30:45.623Z,6.87
2018-09-10T19:33:14.760Z,6.75
2018-09-10T19:35:43.667Z,7.53
2018-09-10T19:38:12.914Z,8.30
2018-09-10T19:40:41.855Z,8.15
2018-09-10T19:43:11.782Z,8.50
2018-09-10T19:45:40.729Z,7.65
2018-09-10T19:48:09.746Z,7.87
2018-09-10T19:50:38.849Z,6.83
2018-09-10T19:53:08.587Z,6.45
2018-09-10T19:55:37.649Z,6.87
2018-09-10T19:58:07.014Z,7.00
2018-09-10T20:00:35.939Z,7.58
2018-09-10T20:03:04.994Z,7.20
2018-09-10T20:05:34.566Z,7.22
2018-09-10T20:08:03.486Z,7.20
2018-09-10T20:10:32.614Z,6.92
2018-09-10T20:13:02.061Z,6.95
2018-09-10T20:15:31.255Z,6.17
2018-09-10T20:18:00.247Z,6.40
2018-09-10T20:20:29.510Z,5.95
2018-09-10T20:22:58.522Z,6.22
2018-09-10T20:25:27.740Z,7.40
2018-09-10T20:27:56.783Z,10.03
2018-09-10T20:30:25.858Z,7.08
2018-09-10T20:32:54.619Z,6.40
2018-09-10T20:35:23.858Z,6.45
2018-09-10T20:37:52.887Z,6.80
2018-09-10T20:40:21.882Z,6.85
2018-09-10T20:42:51.271Z,5.92
2018-09-10T20:45:20.387Z,5.75
2018-09-10T20:47:49.398Z,6.65
2018-09-10T20:50:18.502Z,6.47
2018-09-10T20:52:47.497Z,6.30
2018-09-10T20:55:16.600Z,6.70
2018-09-10T20:57:45.688Z,5.95
2018-09-10T21:00:14.744Z,5.95
2018-09-10T21:02:43.783Z,6.78
2018-09-10T21:05:13.298Z,5.83
2018-09-10T21:07:42.249Z,6.00
2018-09-10T21:10:11.329Z,7.05
2018-09-10T21:12:40.786Z,6.50
2018-09-10T21:15:10.036Z,5.97
2018-09-10T21:17:38.995Z,6.35
2018-09-10T21:20:08.060Z,6.25
2018-09-10T21:22:36.812Z,6.17
2018-09-10T21:25:06.199Z,5.42
2018-09-10T21:27:35.445Z,5.90
2018-09-10T21:30:04.795Z,5.85
2018-09-10T21:32:33.814Z,6.28
2018-09-10T21:35:03.063Z,6.28
2018-09-10T21:37:32.030Z,6.00
2018-09-10T21:40:01.496Z,7.55
2018-09-10T21:42:30.836Z,6.80
2018-09-10T21:44:59.774Z,5.75
2018-09-10T21:47:28.707Z,5.62
2018-09-10T21:49:58.005Z,6.72
2018-09-10T21:52:26.879Z,6.08
2018-09-10T21:54:55.967Z,18.80
2018-09-10T21:57:25.310Z,6.67
2018-09-10T21:59:54.470Z,6.62
2018-09-10T22:02:23.578Z,6.70
2018-09-10T22:04:53.110Z,6.92
2018-09-10T22:07:22.406Z,6.28
2018-09-10T22:09:51.401Z,6.62
2018-09-10T22:12:21.929Z,6.45
2018-09-10T22:14:51.032Z,6.15
2018-09-10T22:17:20.226Z,6.35
2018-09-10T22:19:49.646Z,5.67
2018-09-10T22:22:18.706Z,5.70
2018-09-10T22:24:47.882Z,9.50
2018-09-10T22:27:17.130Z,6.42
2018-09-10T22:29:46.107Z,6.45
2018-09-10T22:32:14.926Z,5.58
2018-09-10T22:34:44.435Z,5.62
2018-09-10T22:37:13.423Z,5.53
2018-09-10T22:39:42.463Z,5.85
2018-09-10T22:42:11.409Z,5.78
2018-09-10T22:44:40.695Z,5.85
2018-09-10T22:47:09.666Z,6.22
2018-09-10T22:49:39.136Z,5.12
2018-09-10T22:52:08.271Z,5.50
2018-09-10T22:54:37.186Z,5.60
2018-09-10T22:57:06.439Z,5.70
2018-09-10T22:59:35.654Z,5.10
2018-09-10T23:02:04.726Z,5.72
2018-09-10T23:04:34.055Z,5.67
2018-09-10T23:07:03.254Z,5.58
2018-09-10T23:09:32.293Z,5.47
2018-09-10T23:12:01.482Z,7.12
2018-09-10T23:14:30.432Z,6.28
2018-09-10T23:16:59.542Z,5.95
2018-09-10T23:19:28.851Z,5.90
2018-09-10T23:21:57.767Z,5.87
2018-09-10T23:24:26.860Z,5.85
2018-09-10T23:26:56.179Z,5.33
2018-09-10T23:29:25.231Z,5.60
2018-09-10T23:31:54.222Z,5.00
2018-09-10T23:34:23.354Z,5.08
2018-09-10T23:36:52.123Z,4.83
2018-09-10T23:39:21.314Z,5.08
2018-09-10T23:41:50.672Z,5.40
2018-09-10T23:44:19.946Z,5.30
2018-09-10T23:46:48.594Z,4.92
2018-09-10T23:49:17.832Z,4.87
2018-09-10T23:51:46.929Z,5.03
2018-09-10T23:54:15.923Z,6.62
2018-09-10T23:56:44.962Z,9.98
2018-09-10T23:59:14.137Z,4.80
